createdAt,value
2022-08-16T00:03:34.000Z,8.6
2022-08-16T00:07:08.000Z,11.2
2022-08-16T00:10:44.000Z,8.6
2022-08-16T00:14:19.000Z,11.8
2022-08-16T00:17:14.000Z,8.5
2022-08-16T00:20:48.000Z,8.7
2022-08-16T00:24:24.000Z,8.6
2022-08-16T00:28:42.000Z,9.4
2022-08-16T00:32:27.000Z,6.7
2022-08-16T00:36:03.000Z,7.6
2022-08-16T00:39:57.000Z,6.2
2022-08-16T00:43:59.000Z,6.7
2022-08-16T00:47:34.000Z,6.9
2022-08-16T00:51:17.000Z,7
2022-08-16T00:54:55.000Z,8.3
2022-08-16T00:57:46.000Z,8.5
2022-08-16T01:01:26.000Z,7.1
2022-08-16T01:05:02.000Z,7.1
2022-08-16T01:08:59.000Z,7.6
2022-08-16T01:12:36.000Z,11.3
2022-08-16T01:16:09.000Z,6.5
2022-08-16T01:19:54.000Z,6.9
2022-08-16T01:23:49.000Z,5.9
2022-08-16T01:27:35.000Z,6.5
2022-08-16T01:31:09.000Z,6.9
2022-08-16T01:34:42.000Z,7.3
2022-08-16T01:37:40.000Z,7.1
2022-08-16T01:41:21.000Z,7.7
2022-08-16T01:44:55.000Z,6.5
2022-08-16T01:48:38.000Z,6
2022-08-16T01:53:04.000Z,6.3
2022-08-16T01:56:38.000Z,8.9
2022-08-16T02:00:19.000Z,9.4
2022-08-16T02:03:59.000Z,7.6
2022-08-16T02:07:40.000Z,8.2
2022-08-16T02:11:17.000Z,9
2022-08-16T02:15:13.000Z,7.7
2022-08-16T02:18:09.000Z,8
2022-08-16T02:21:59.000Z,8
2022-08-16T02:25:59.000Z,8.4
2022-08-16T02:29:32.000Z,8.2
2022-08-16T02:33:07.000Z,7.6
2022-08-16T02:36:43.000Z,6.8
2022-08-16T02:40:17.000Z,6.3
2022-08-16T02:43:52.000Z,8.5
2022-08-16T02:47:26.000Z,7.9
2022-08-16T02:52:51.000Z,8.7
2022-08-16T02:56:25.000Z,8.6
2022-08-16T02:59:16.000Z,9.2
2022-08-16T03:02:51.000Z,7.4
2022-08-16T03:06:50.000Z,8.8
2022-08-16T03:10:51.000Z,6.6
2022-08-16T03:14:29.000Z,7.6
2022-08-16T03:18:03.000Z,7.6
2022-08-16T03:21:58.000Z,6.7
2022-08-16T03:25:34.000Z,7.4
2022-08-16T03:29:10.000Z,7.3
2022-08-16T03:32:42.000Z,6.3
2022-08-16T03:36:17.000Z,7.5
2022-08-16T03:39:16.000Z,7.8
2022-08-16T03:42:49.000Z,7.2
2022-08-16T03:46:48.000Z,7.5
2022-08-16T03:50:35.000Z,7.5
2022-08-16T03:54:30.000Z,7.7
2022-08-16T03:58:05.000Z,7.2
2022-08-16T04:01:42.000Z,6.8
2022-08-16T04:05:20.000Z,7.8
2022-08-16T04:08:55.000Z,7
2022-08-16T04:12:36.000Z,7.2
2022-08-16T04:16:31.000Z,7.5
2022-08-16T04:19:22.000Z,8.2
2022-08-16T04:22:58.000Z,7.6
2022-08-16T04:26:33.000Z,8.2
2022-08-16T04:31:13.000Z,7.1
2022-08-16T04:34:48.000Z,7.6
2022-08-16T04:38:21.000Z,6.8
2022-08-16T04:41:56.000Z,9.9
2022-08-16T04:48:09.000Z,7.8
2022-08-16T04:51:57.000Z,10.6
2022-08-16T04:55:59.000Z,7.8
2022-08-16T04:59:37.000Z,7.7
2022-08-16T05:02:22.000Z,7.6
2022-08-16T05:06:18.000Z,7.8
2022-08-16T05:10:29.000Z,8.9
2022-08-16T05:14:03.000Z,8.3
2022-08-16T05:17:48.000Z,9.9
2022-08-16T05:21:34.000Z,9.3
2022-08-16T05:25:10.000Z,13.5
2022-08-16T05:31:19.000Z,10.2
2022-08-16T05:34:57.000Z,12.2
2022-08-16T05:38:35.000Z,8
2022-08-16T05:42:11.000Z,8.2
2022-08-16T05:44:57.000Z,12
2022-08-16T05:48:32.000Z,11.8
2022-08-16T05:52:17.000Z,13.3
2022-08-16T05:55:53.000Z,8.9
2022-08-16T05:59:34.000Z,10.5
2022-08-16T06:03:08.000Z,10.8
2022-08-16T06:06:44.000Z,10.2
2022-08-16T06:10:31.000Z,10.7
2022-08-16T06:14:28.000Z,13.4
2022-08-16T06:18:01.000Z,10.9
2022-08-16T06:21:34.000Z,10.7
2022-08-16T06:24:26.000Z,9.5
2022-08-16T06:28:20.000Z,8.5
2022-08-16T06:32:01.000Z,11.1
2022-08-16T06:35:52.000Z,7.4
2022-08-16T06:39:36.000Z,8.4
2022-08-16T06:43:15.000Z,10.2
2022-08-16T06:46:53.000Z,9.4
2022-08-16T06:50:32.000Z,8.4
2022-08-16T06:54:58.000Z,8.7
2022-08-16T06:58:40.000Z,8.3
2022-08-16T07:02:23.000Z,8
2022-08-16T07:05:17.000Z,7.8
2022-08-16T07:09:08.000Z,7.3
2022-08-16T07:12:41.000Z,8
2022-08-16T07:16:37.000Z,7.3
2022-08-16T07:20:10.000Z,8.1
2022-08-16T07:24:38.000Z,8.4
2022-08-16T07:28:24.000Z,6.7
2022-08-16T07:31:57.000Z,7.2
2022-08-16T07:35:53.000Z,6.8
2022-08-16T07:39:28.000Z,6.9
2022-08-16T07:43:09.000Z,7.6
2022-08-16T07:46:01.000Z,7.5
2022-08-16T07:50:11.000Z,9.3
2022-08-16T07:54:28.000Z,8.5
2022-08-16T07:58:05.000Z,7.3
2022-08-16T08:02:00.000Z,7.6
2022-08-16T08:05:42.000Z,8.6
2022-08-16T08:09:15.000Z,9.3
2022-08-16T08:12:50.000Z,7.2
2022-08-16T08:16:29.000Z,8.9
2022-08-16T08:20:29.000Z,7.1
2022-08-16T08:24:05.000Z,8
2022-08-16T08:26:59.000Z,6.7
2022-08-16T08:30:34.000Z,7.8
2022-08-16T08:34:59.000Z,7.7
2022-08-16T08:38:33.000Z,7.4
2022-08-16T08:42:11.000Z,9.2
2022-08-16T08:45:53.000Z,8.1
2022-08-16T08:49:25.000Z,6.2
2022-08-16T08:53:20.000Z,6.4
2022-08-16T08:56:55.000Z,5.3
2022-08-16T09:00:33.000Z,6.7
2022-08-16T09:04:18.000Z,5.6
2022-08-16T09:07:10.000Z,5.2
2022-08-16T09:10:46.000Z,6.4
2022-08-16T09:14:35.000Z,4.7
2022-08-16T09:19:04.000Z,5.4
2022-08-16T09:22:59.000Z,5.4
2022-08-16T09:26:51.000Z,6.1
2022-08-16T09:31:15.000Z,5.7
2022-08-16T09:34:49.000Z,6.1
2022-08-16T09:38:31.000Z,5.7
2022-08-16T09:42:32.000Z,5.1
2022-08-16T09:47:16.000Z,5.8
2022-08-16T09:50:08.000Z,4.8
2022-08-16T09:53:49.000Z,5
2022-08-16T09:57:24.000Z,5.4
2022-08-16T10:01:05.000Z,5
2022-08-16T10:04:46.000Z,5
2022-08-16T10:08:21.000Z,4.3
2022-08-16T10:11:55.000Z,4.3
2022-08-16T10:15:44.000Z,4.1
2022-08-16T10:19:22.000Z,3.9
2022-08-16T10:22:57.000Z,4
2022-08-16T10:26:32.000Z,4.5
2022-08-16T10:30:09.000Z,4.1
2022-08-16T10:33:52.000Z,4.4
2022-08-16T10:37:31.000Z,3.6
2022-08-16T10:41:07.000Z,3.4
2022-08-16T10:44:44.000Z,4.6
2022-08-16T10:48:37.000Z,3.5
2022-08-16T10:52:19.000Z,3.4
2022-08-16T10:55:58.000Z,3.3
2022-08-16T11:00:32.000Z,3.5
2022-08-16T11:04:59.000Z,5
2022-08-16T11:08:34.000Z,3.5
2022-08-16T11:11:30.000Z,3.1
2022-08-16T11:16:04.000Z,3.1
2022-08-16T11:21:05.000Z,4.7
2022-08-16T11:24:54.000Z,3.3
2022-08-16T11:32:03.000Z,4
2022-08-16T11:35:53.000Z,5
2022-08-16T11:40:46.000Z,3.4
2022-08-16T11:44:29.000Z,3.7
2022-08-16T11:48:44.000Z,3.2
2022-08-16T11:52:17.000Z,3.3
2022-08-16T11:55:53.000Z,3.2
2022-08-16T11:58:40.000Z,10.3
2022-08-16T12:02:49.000Z,2.9
2022-08-16T12:06:24.000Z,2.8
2022-08-16T12:10:03.000Z,3.2
2022-08-16T12:13:37.000Z,2.9
2022-08-16T12:17:11.000Z,3.5
2022-08-16T12:20:43.000Z,3.3
2022-08-16T12:24:20.000Z,3.2
2022-08-16T12:27:53.000Z,3.5
2022-08-16T12:31:28.000Z,3.3
2022-08-16T12:35:02.000Z,3.2
2022-08-16T12:37:52.000Z,3
2022-08-16T12:41:34.000Z,2.9
2022-08-16T12:45:10.000Z,2.9
2022-08-16T12:48:44.000Z,2.8
2022-08-16T12:52:18.000Z,2.6
2022-08-16T12:56:01.000Z,2.6
2022-08-16T12:59:35.000Z,2.7
2022-08-16T13:03:08.000Z,2.9
2022-08-16T13:06:42.000Z,3.3
2022-08-16T13:10:19.000Z,2.7
2022-08-16T13:14:04.000Z,3
2022-08-16T13:17:16.000Z,2.4
2022-08-16T13:20:53.000Z,2.5
2022-08-16T13:24:26.000Z,2.5
2022-08-16T13:28:00.000Z,2.6
2022-08-16T13:31:42.000Z,2.7
2022-08-16T13:35:27.000Z,3.1
2022-08-16T13:39:00.000Z,2.7
2022-08-16T13:42:33.000Z,3.2
2022-08-16T13:46:08.000Z,3
2022-08-16T13:49:41.000Z,3.1
2022-08-16T13:53:16.000Z,2.9
2022-08-16T13:56:08.000Z,2.7
2022-08-16T14:00:36.000Z,2.5
2022-08-16T14:04:10.000Z,2.9
2022-08-16T14:07:51.000Z,2.7
2022-08-16T14:11:26.000Z,2.9
2022-08-16T14:15:00.000Z,3.5
2022-08-16T14:18:33.000Z,2.7
2022-08-16T14:22:18.000Z,4.4
2022-08-16T14:25:56.000Z,2.5
2022-08-16T14:29:29.000Z,2.5
2022-08-16T14:33:03.000Z,4.7
2022-08-16T14:35:55.000Z,4
2022-08-16T14:39:30.000Z,3.8
2022-08-16T14:43:08.000Z,3.1
2022-08-16T14:46:41.000Z,2.8
2022-08-16T14:50:14.000Z,2.6
2022-08-16T14:53:50.000Z,3
2022-08-16T14:57:23.000Z,2.7
2022-08-16T15:00:57.000Z,3.7
2022-08-16T15:04:33.000Z,3.2
2022-08-16T15:08:15.000Z,2.9
2022-08-16T15:12:06.000Z,2.8
2022-08-16T15:15:15.000Z,2.5
2022-08-16T15:18:47.000Z,3
2022-08-16T15:22:20.000Z,2.5
2022-08-16T15:25:53.000Z,3.2
2022-08-16T15:29:35.000Z,3.1
2022-08-16T15:33:08.000Z,3.2
2022-08-16T15:36:42.000Z,2.9
2022-08-16T15:40:58.000Z,2.9
2022-08-16T15:44:33.000Z,3.3
2022-08-16T15:48:54.000Z,3.5
2022-08-16T15:52:28.000Z,2.8
2022-08-16T15:55:19.000Z,3.2
2022-08-16T15:59:10.000Z,3
2022-08-16T16:02:43.000Z,2.7
2022-08-16T16:06:24.000Z,12.9
2022-08-16T16:10:10.000Z,28.5
2022-08-16T16:13:44.000Z,14.2
2022-08-16T16:17:17.000Z,17.1
2022-08-16T16:20:51.000Z,9.4
2022-08-16T16:24:25.000Z,5.8
2022-08-16T16:28:04.000Z,10.9
2022-08-16T16:31:39.000Z,12.4
2022-08-16T16:34:42.000Z,3.8
2022-08-16T16:38:16.000Z,2.8
2022-08-16T16:41:53.000Z,3.1
2022-08-16T16:45:31.000Z,3.2
2022-08-16T16:49:05.000Z,2.5
2022-08-16T16:52:44.000Z,3.1
2022-08-16T16:56:27.000Z,2.8
2022-08-16T17:00:04.000Z,3.1
2022-08-16T17:23:13.000Z,2.6
2022-08-16T17:27:22.000Z,2.5
2022-08-16T17:42:57.000Z,30.3
2022-08-16T17:46:30.000Z,24.6
2022-08-16T17:50:17.000Z,27.5
2022-08-16T17:53:52.000Z,12.7
2022-08-16T17:57:25.000Z,17.5
2022-08-16T18:00:58.000Z,12.9
2022-08-16T18:04:43.000Z,13.6
2022-08-16T18:08:15.000Z,8
2022-08-16T18:11:53.000Z,3
2022-08-16T18:14:44.000Z,3.8
2022-08-16T18:18:22.000Z,4.1
2022-08-16T18:21:54.000Z,8.3
2022-08-16T18:25:27.000Z,3.5
2022-08-16T18:29:24.000Z,5.4
2022-08-16T18:33:04.000Z,8.9
2022-08-16T18:36:36.000Z,6.5
2022-08-16T18:40:09.000Z,5.6
2022-08-16T18:43:42.000Z,3.8
2022-08-16T18:47:49.000Z,3.4
2022-08-16T18:51:22.000Z,3.8
2022-08-16T18:54:13.000Z,5.4
2022-08-16T18:57:46.000Z,4.6
2022-08-16T19:01:19.000Z,3.4
2022-08-16T19:04:57.000Z,4.3
2022-08-16T19:08:30.000Z,3.5
2022-08-16T19:12:03.000Z,3.7
2022-08-16T19:15:35.000Z,5
2022-08-16T19:19:08.000Z,4
2022-08-16T19:22:41.000Z,5
2022-08-16T19:26:30.000Z,4
2022-08-16T19:30:05.000Z,4.7
2022-08-16T19:32:56.000Z,6.1
2022-08-16T19:36:35.000Z,5.2
2022-08-16T19:40:09.000Z,4.1
2022-08-16T19:44:03.000Z,3.9
2022-08-16T19:47:42.000Z,4.5
2022-08-16T19:51:21.000Z,4.4
2022-08-16T19:54:54.000Z,5
2022-08-16T19:58:26.000Z,4.5
2022-08-16T20:02:09.000Z,4.7
2022-08-16T20:06:01.000Z,4.5
2022-08-16T20:09:36.000Z,4.7
2022-08-16T20:12:27.000Z,4.3
2022-08-16T20:16:00.000Z,4.5
2022-08-16T20:19:33.000Z,4.2
2022-08-16T20:23:05.000Z,4.2
2022-08-16T20:26:52.000Z,4.2
2022-08-16T20:30:53.000Z,4.8
2022-08-16T20:34:35.000Z,5.2
2022-08-16T20:38:15.000Z,4.7
2022-08-16T20:41:47.000Z,5.1
2022-08-16T20:45:20.000Z,5
2022-08-16T20:48:53.000Z,5.2
2022-08-16T20:51:44.000Z,4.8
2022-08-16T20:55:24.000Z,4.8
2022-08-16T20:58:57.000Z,5.1
2022-08-16T21:02:29.000Z,5.1
2022-08-16T21:06:03.000Z,5.2
2022-08-16T21:09:35.000Z,5.1
2022-08-16T21:13:11.000Z,5.3
2022-08-16T21:16:43.000Z,5.5
2022-08-16T21:20:16.000Z,4.9
2022-08-16T21:23:49.000Z,4.9
2022-08-16T21:27:22.000Z,6.3
2022-08-16T21:30:13.000Z,6.5
2022-08-16T21:33:56.000Z,6.3
2022-08-16T21:37:28.000Z,5.5
2022-08-16T21:41:01.000Z,5.1
2022-08-16T21:44:35.000Z,5.5
2022-08-16T21:48:08.000Z,5.4
2022-08-16T21:51:40.000Z,5.1
2022-08-16T21:55:13.000Z,5.6
2022-08-16T21:58:45.000Z,5.7
2022-08-16T22:02:19.000Z,5.6
2022-08-16T22:06:00.000Z,5.6
2022-08-16T22:08:57.000Z,5.9
2022-08-16T22:13:07.000Z,5.9
2022-08-16T22:16:39.000Z,5.4
2022-08-16T22:20:12.000Z,5.8
2022-08-16T22:23:44.000Z,5.9
2022-08-16T22:27:23.000Z,6.1
2022-08-16T22:30:56.000Z,6.5
2022-08-16T22:34:28.000Z,6.1
2022-08-16T22:38:01.000Z,6.1
2022-08-16T22:42:21.000Z,7.3
2022-08-16T22:45:54.000Z,6.4
2022-08-16T22:48:45.000Z,6.5
2022-08-16T22:52:18.000Z,6.8
2022-08-16T22:56:47.000Z,6.7
2022-08-16T23:00:34.000Z,6.8
2022-08-16T23:04:07.000Z,6.7
2022-08-16T23:07:40.000Z,6.6
2022-08-16T23:11:12.000Z,6.2
2022-08-16T23:14:45.000Z,6.6
2022-08-16T23:18:18.000Z,6.3
2022-08-16T23:21:52.000Z,7.9
2022-08-16T23:25:25.000Z,6.8
2022-08-16T23:28:16.000Z,6.8
2022-08-16T23:31:49.000Z,6.9
2022-08-16T23:35:21.000Z,7.8
2022-08-16T23:39:10.000Z,6.8
2022-08-16T23:42:43.000Z,6.6
2022-08-16T23:46:57.000Z,7
2022-08-16T23:51:58.000Z,7.5
2022-08-16T23:55:31.000Z,7.5
2022-08-16T23:59:03.000Z,7.6
